EGGD - Bristol-Lulsgate
Distance from station: E 5mi, 14km
Updated: 10/17/2017 2:20am
Clear
Clear
 Wind from SW
Wind: SW 10 mph , 17 km/h
Temperature: 54°F , 12°C
Dew Point: 46°F , 8°C
Humidity: 77%
Barometer: 30.09 inHg , 1019 hPa
Clouds: Clear
Visibility: 6 miles , 10 km
2017/10/17 09:20 EGGD 170920Z AUTO 23009KT 9999 NCD 12/08 Q1019